Huvudsida
METAR-TAF:

METAR-TAF

Flygplatser :

Kiruna Airport

Kiruna, Sverige

latitud: 67-49N, longitud: 020-20E, höjd: 452 m

Aktuellt väderrapport

Denna rapport gjordes för 38 minuter sedan, klockan 18:50 UTC
Vind 10 kt från väst
Temperatur 15°C
Fuktighet 59%
Tryck 1010 hPa
Sikt 10 km eller mer

METAR: ESNQ 251850Z AUTO 27010KT 9999 BKN049/// OVC064/// 15/07 Q1010

Tid: 21:28 (19:28 UTC)

Väderprognos

Denna rapport gjordes för 4 timmar och 58 minuter sedan, klockan 14:30 UTC
Prognos gäller från 25 kl. 15 UTC till 25 kl. 17 UTC
Vind 12 kt från väst
Sikt 10 km eller mer
Spridda moln på en höjd av 4500 ft

TAF: ESNQ 251430Z 2515/2517 26012KT 9999 SCT045

Aktuella väderrapporter och prognoser från 4000 flygplatser (METAR- och TAF-rapporter).

De tillgängliga stationerna syns som gula och röda prickar på kartan.

För musen över prickarna för att se namnen på stationerna.

Klicka sedan för att få väderrapporter och prognoser.

För att ändra kartan: Klicka på de gröna knapparna med ett svart kors på för att zooma in; den gröna knappen med ett streck på för att zooma ut; eller på de gröna pilarna för angränsande kartor.


METAR-TAF: